sensor_id;sensor_type;location;lat;lon;timestamp;P1;durP1;ratioP1;P2;durP2;ratioP2
7383;SDS011;3733;47.994;8.820;2023-06-14T00:00:38;7.93;;;5.30;;
7383;SDS011;3733;47.994;8.820;2023-06-14T00:03:06;7.27;;;5.17;;
7383;SDS011;3733;47.994;8.820;2023-06-14T00:05:33;7.77;;;5.47;;
7383;SDS011;3733;47.994;8.820;2023-06-14T00:08:03;9.03;;;5.30;;
7383;SDS011;3733;47.994;8.820;2023-06-14T00:10:32;7.60;;;5.40;;
7383;SDS011;3733;47.994;8.820;2023-06-14T00:13:00;9.17;;;5.43;;
7383;SDS011;3733;47.994;8.820;2023-06-14T00:15:26;9.37;;;5.67;;
7383;SDS011;3733;47.994;8.820;2023-06-14T00:17:52;13.10;;;6.30;;
7383;SDS011;3733;47.994;8.820;2023-06-14T00:20:17;12.50;;;5.63;;
7383;SDS011;3733;47.994;8.820;2023-06-14T00:22:43;12.93;;;6.07;;
7383;SDS011;3733;47.994;8.820;2023-06-14T00:25:10;7.87;;;5.60;;
7383;SDS011;3733;47.994;8.820;2023-06-14T00:27:35;10.83;;;6.37;;
7383;SDS011;3733;47.994;8.820;2023-06-14T00:30:01;10.57;;;5.80;;
7383;SDS011;3733;47.994;8.820;2023-06-14T00:32:27;11.13;;;5.70;;
7383;SDS011;3733;47.994;8.820;2023-06-14T00:34:52;9.40;;;5.83;;
7383;SDS011;3733;47.994;8.820;2023-06-14T00:37:18;11.17;;;6.40;;
7383;SDS011;3733;47.994;8.820;2023-06-14T00:39:44;7.87;;;5.90;;
7383;SDS011;3733;47.994;8.820;2023-06-14T00:42:09;10.77;;;6.67;;
7383;SDS011;3733;47.994;8.820;2023-06-14T00:44:35;8.60;;;5.60;;
7383;SDS011;3733;47.994;8.820;2023-06-14T00:47:00;7.00;;;5.57;;
7383;SDS011;3733;47.994;8.820;2023-06-14T00:49:27;9.00;;;6.10;;
7383;SDS011;3733;47.994;8.820;2023-06-14T00:51:54;9.00;;;6.63;;
7383;SDS011;3733;47.994;8.820;2023-06-14T00:54:20;10.23;;;5.47;;
7383;SDS011;3733;47.994;8.820;2023-06-14T00:56:45;10.03;;;6.27;;
7383;SDS011;3733;47.994;8.820;2023-06-14T00:59:11;12.80;;;6.00;;
7383;SDS011;3733;47.994;8.820;2023-06-14T01:01:37;18.23;;;5.70;;
7383;SDS011;3733;47.994;8.820;2023-06-14T01:04:03;6.30;;;5.60;;
7383;SDS011;3733;47.994;8.820;2023-06-14T01:10:03;10.40;;;5.50;;
7383;SDS011;3733;47.994;8.820;2023-06-14T01:12:21;8.27;;;5.53;;
7383;SDS011;3733;47.994;8.820;2023-06-14T01:14:56;8.43;;;5.53;;
7383;SDS011;3733;47.994;8.820;2023-06-14T01:17:24;9.67;;;5.77;;
7383;SDS011;3733;47.994;8.820;2023-06-14T01:19:52;7.20;;;5.63;;
7383;SDS011;3733;47.994;8.820;2023-06-14T01:22:23;7.40;;;5.57;;
7383;SDS011;3733;47.994;8.820;2023-06-14T01:24:52;12.63;;;6.10;;
7383;SDS011;3733;47.994;8.820;2023-06-14T01:27:21;6.50;;;5.23;;
7383;SDS011;3733;47.994;8.820;2023-06-14T01:29:49;6.87;;;5.67;;
7383;SDS011;3733;47.994;8.820;2023-06-14T01:32:17;12.90;;;5.47;;
7383;SDS011;3733;47.994;8.820;2023-06-14T01:34:43;7.17;;;5.47;;
7383;SDS011;3733;47.994;8.820;2023-06-14T01:37:10;8.10;;;5.23;;
7383;SDS011;3733;47.994;8.820;2023-06-14T01:39:38;8.37;;;5.73;;
7383;SDS011;3733;47.994;8.820;2023-06-14T01:42:04;11.20;;;5.33;;
7383;SDS011;3733;47.994;8.820;2023-06-14T01:44:31;8.20;;;6.10;;
7383;SDS011;3733;47.994;8.820;2023-06-14T01:46:57;12.53;;;6.80;;
7383;SDS011;3733;47.994;8.820;2023-06-14T01:49:23;8.40;;;5.80;;
7383;SDS011;3733;47.994;8.820;2023-06-14T01:51:50;13.90;;;6.47;;
7383;SDS011;3733;47.994;8.820;2023-06-14T01:54:16;7.67;;;6.10;;
7383;SDS011;3733;47.994;8.820;2023-06-14T01:56:41;9.90;;;5.70;;
7383;SDS011;3733;47.994;8.820;2023-06-14T01:59:07;9.83;;;5.97;;
7383;SDS011;3733;47.994;8.820;2023-06-14T02:01:33;10.80;;;6.43;;
7383;SDS011;3733;47.994;8.820;2023-06-14T02:03:59;12.83;;;6.40;;
7383;SDS011;3733;47.994;8.820;2023-06-14T02:06:26;6.80;;;5.60;;
7383;SDS011;3733;47.994;8.820;2023-06-14T02:08:51;10.43;;;6.10;;
7383;SDS011;3733;47.994;8.820;2023-06-14T02:11:17;8.33;;;6.00;;
7383;SDS011;3733;47.994;8.820;2023-06-14T02:13:42;7.67;;;5.87;;
7383;SDS011;3733;47.994;8.820;2023-06-14T02:16:08;9.00;;;5.80;;
7383;SDS011;3733;47.994;8.820;2023-06-14T02:18:34;10.40;;;6.30;;
7383;SDS011;3733;47.994;8.820;2023-06-14T02:21:00;10.53;;;5.83;;
7383;SDS011;3733;47.994;8.820;2023-06-14T02:23:26;8.50;;;5.80;;
7383;SDS011;3733;47.994;8.820;2023-06-14T02:25:52;7.87;;;5.80;;
7383;SDS011;3733;47.994;8.820;2023-06-14T02:28:17;16.43;;;6.97;;
7383;SDS011;3733;47.994;8.820;2023-06-14T02:30:43;12.03;;;5.60;;
7383;SDS011;3733;47.994;8.820;2023-06-14T02:33:09;7.67;;;5.83;;
7383;SDS011;3733;47.994;8.820;2023-06-14T02:35:37;9.90;;;6.30;;
7383;SDS011;3733;47.994;8.820;2023-06-14T02:38:03;9.90;;;6.03;;
7383;SDS011;3733;47.994;8.820;2023-06-14T02:40:29;8.37;;;5.77;;
7383;SDS011;3733;47.994;8.820;2023-06-14T02:42:54;11.30;;;6.23;;
7383;SDS011;3733;47.994;8.820;2023-06-14T02:45:20;9.73;;;5.73;;
7383;SDS011;3733;47.994;8.820;2023-06-14T02:47:46;9.30;;;5.53;;
7383;SDS011;3733;47.994;8.820;2023-06-14T02:50:11;11.30;;;6.20;;
7383;SDS011;3733;47.994;8.820;2023-06-14T02:52:37;10.60;;;6.00;;
7383;SDS011;3733;47.994;8.820;2023-06-14T02:55:03;7.37;;;6.30;;
7383;SDS011;3733;47.994;8.820;2023-06-14T02:57:29;11.07;;;6.53;;
7383;SDS011;3733;47.994;8.820;2023-06-14T02:59:55;7.60;;;5.90;;
7383;SDS011;3733;47.994;8.820;2023-06-14T03:02:20;7.40;;;6.27;;
7383;SDS011;3733;47.994;8.820;2023-06-14T03:04:46;11.50;;;7.47;;
7383;SDS011;3733;47.994;8.820;2023-06-14T03:07:11;8.90;;;6.20;;
7383;SDS011;3733;47.994;8.820;2023-06-14T03:09:38;11.90;;;6.40;;
7383;SDS011;3733;47.994;8.820;2023-06-14T03:12:04;12.97;;;6.83;;
7383;SDS011;3733;47.994;8.820;2023-06-14T03:14:35;9.13;;;6.30;;
7383;SDS011;3733;47.994;8.820;2023-06-14T03:17:01;12.90;;;6.40;;
7383;SDS011;3733;47.994;8.820;2023-06-14T03:19:27;8.83;;;6.60;;
7383;SDS011;3733;47.994;8.820;2023-06-14T03:21:52;14.70;;;7.07;;
7383;SDS011;3733;47.994;8.820;2023-06-14T03:24:21;15.30;;;6.23;;
7383;SDS011;3733;47.994;8.820;2023-06-14T03:26:48;8.80;;;5.77;;
7383;SDS011;3733;47.994;8.820;2023-06-14T03:29:13;10.30;;;6.80;;
7383;SDS011;3733;47.994;8.820;2023-06-14T03:31:40;13.13;;;6.40;;
7383;SDS011;3733;47.994;8.820;2023-06-14T03:34:21;9.10;;;6.33;;
7383;SDS011;3733;47.994;8.820;2023-06-14T03:36:47;12.50;;;6.83;;
7383;SDS011;3733;47.994;8.820;2023-06-14T03:39:12;11.53;;;6.53;;
7383;SDS011;3733;47.994;8.820;2023-06-14T03:41:38;7.63;;;6.07;;
7383;SDS011;3733;47.994;8.820;2023-06-14T03:44:04;9.47;;;6.23;;
7383;SDS011;3733;47.994;8.820;2023-06-14T03:46:29;9.43;;;6.50;;
7383;SDS011;3733;47.994;8.820;2023-06-14T03:48:55;7.90;;;6.23;;
7383;SDS011;3733;47.994;8.820;2023-06-14T03:51:20;12.03;;;6.50;;
7383;SDS011;3733;47.994;8.820;2023-06-14T03:53:47;12.80;;;6.83;;
7383;SDS011;3733;47.994;8.820;2023-06-14T03:56:13;9.27;;;6.30;;
7383;SDS011;3733;47.994;8.820;2023-06-14T03:58:38;11.93;;;6.17;;
7383;SDS011;3733;47.994;8.820;2023-06-14T04:01:04;12.80;;;6.63;;
7383;SDS011;3733;47.994;8.820;2023-06-14T04:03:31;10.03;;;6.53;;
7383;SDS011;3733;47.994;8.820;2023-06-14T04:05:58;10.87;;;6.57;;
7383;SDS011;3733;47.994;8.820;2023-06-14T04:08:24;13.07;;;7.07;;
7383;SDS011;3733;47.994;8.820;2023-06-14T04:10:50;17.43;;;7.07;;
7383;SDS011;3733;47.994;8.820;2023-06-14T04:13:16;10.23;;;7.63;;
7383;SDS011;3733;47.994;8.820;2023-06-14T04:15:42;11.30;;;7.27;;
7383;SDS011;3733;47.994;8.820;2023-06-14T04:18:10;11.83;;;6.90;;
7383;SDS011;3733;47.994;8.820;2023-06-14T04:20:36;16.40;;;7.80;;
7383;SDS011;3733;47.994;8.820;2023-06-14T04:23:11;9.23;;;6.93;;
7383;SDS011;3733;47.994;8.820;2023-06-14T04:25:40;12.17;;;7.10;;
7383;SDS011;3733;47.994;8.820;2023-06-14T04:28:09;10.20;;;6.43;;
7383;SDS011;3733;47.994;8.820;2023-06-14T04:30:36;10.97;;;6.63;;
7383;SDS011;3733;47.994;8.820;2023-06-14T04:33:03;12.93;;;8.03;;
7383;SDS011;3733;47.994;8.820;2023-06-14T04:35:32;9.20;;;6.80;;
7383;SDS011;3733;47.994;8.820;2023-06-14T04:37:58;11.83;;;6.03;;
7383;SDS011;3733;47.994;8.820;2023-06-14T04:40:24;8.97;;;6.33;;
7383;SDS011;3733;47.994;8.820;2023-06-14T04:42:50;9.30;;;7.30;;
7383;SDS011;3733;47.994;8.820;2023-06-14T04:45:16;9.83;;;7.40;;
7383;SDS011;3733;47.994;8.820;2023-06-14T04:47:42;14.73;;;7.90;;
7383;SDS011;3733;47.994;8.820;2023-06-14T04:50:09;7.37;;;6.20;;
7383;SDS011;3733;47.994;8.820;2023-06-14T04:52:36;9.80;;;6.87;;
7383;SDS011;3733;47.994;8.820;2023-06-14T04:55:02;11.40;;;6.90;;
7383;SDS011;3733;47.994;8.820;2023-06-14T04:57:28;12.50;;;7.67;;
7383;SDS011;3733;47.994;8.820;2023-06-14T04:59:54;11.67;;;7.90;;
7383;SDS011;3733;47.994;8.820;2023-06-14T05:02:23;8.47;;;6.73;;
7383;SDS011;3733;47.994;8.820;2023-06-14T05:04:50;8.17;;;6.73;;
7383;SDS011;3733;47.994;8.820;2023-06-14T05:07:17;8.63;;;6.63;;
7383;SDS011;3733;47.994;8.820;2023-06-14T05:09:43;10.30;;;7.07;;
7383;SDS011;3733;47.994;8.820;2023-06-14T05:12:09;10.47;;;6.67;;
7383;SDS011;3733;47.994;8.820;2023-06-14T05:14:35;11.50;;;6.47;;
7383;SDS011;3733;47.994;8.820;2023-06-14T05:17:01;9.97;;;6.50;;
7383;SDS011;3733;47.994;8.820;2023-06-14T05:19:27;9.10;;;7.07;;
7383;SDS011;3733;47.994;8.820;2023-06-14T05:21:53;11.90;;;7.90;;
7383;SDS011;3733;47.994;8.820;2023-06-14T05:24:19;12.60;;;8.17;;
7383;SDS011;3733;47.994;8.820;2023-06-14T05:26:45;12.37;;;8.40;;
7383;SDS011;3733;47.994;8.820;2023-06-14T05:29:11;14.17;;;8.87;;
7383;SDS011;3733;47.994;8.820;2023-06-14T05:31:36;14.33;;;8.73;;
7383;SDS011;3733;47.994;8.820;2023-06-14T05:34:02;16.43;;;10.23;;
7383;SDS011;3733;47.994;8.820;2023-06-14T05:36:28;16.10;;;9.97;;
7383;SDS011;3733;47.994;8.820;2023-06-14T05:38:54;17.03;;;9.13;;
7383;SDS011;3733;47.994;8.820;2023-06-14T05:41:24;16.63;;;9.17;;
7383;SDS011;3733;47.994;8.820;2023-06-14T05:43:50;14.93;;;9.60;;
7383;SDS011;3733;47.994;8.820;2023-06-14T05:46:16;15.27;;;9.57;;
7383;SDS011;3733;47.994;8.820;2023-06-14T05:48:47;14.97;;;9.47;;
7383;SDS011;3733;47.994;8.820;2023-06-14T05:51:13;17.90;;;9.70;;
7383;SDS011;3733;47.994;8.820;2023-06-14T05:53:39;13.67;;;9.53;;
7383;SDS011;3733;47.994;8.820;2023-06-14T05:56:05;14.90;;;9.60;;
7383;SDS011;3733;47.994;8.820;2023-06-14T05:58:31;15.10;;;9.03;;
7383;SDS011;3733;47.994;8.820;2023-06-14T06:00:56;16.13;;;9.40;;
7383;SDS011;3733;47.994;8.820;2023-06-14T06:03:22;13.73;;;9.20;;
7383;SDS011;3733;47.994;8.820;2023-06-14T06:05:48;18.03;;;9.20;;
7383;SDS011;3733;47.994;8.820;2023-06-14T06:08:14;23.97;;;9.70;;
7383;SDS011;3733;47.994;8.820;2023-06-14T06:10:41;13.70;;;8.60;;
7383;SDS011;3733;47.994;8.820;2023-06-14T06:13:07;22.87;;;9.37;;
7383;SDS011;3733;47.994;8.820;2023-06-14T06:15:32;16.10;;;10.00;;
7383;SDS011;3733;47.994;8.820;2023-06-14T06:17:58;20.40;;;9.90;;
7383;SDS011;3733;47.994;8.820;2023-06-14T06:20:24;21.40;;;10.87;;
7383;SDS011;3733;47.994;8.820;2023-06-14T06:22:53;17.27;;;10.27;;
7383;SDS011;3733;47.994;8.820;2023-06-14T06:25:19;14.63;;;9.97;;
7383;SDS011;3733;47.994;8.820;2023-06-14T06:27:45;22.13;;;10.17;;
7383;SDS011;3733;47.994;8.820;2023-06-14T06:30:11;21.10;;;11.10;;
7383;SDS011;3733;47.994;8.820;2023-06-14T06:32:37;17.90;;;11.33;;
7383;SDS011;3733;47.994;8.820;2023-06-14T06:35:02;22.17;;;10.93;;
7383;SDS011;3733;47.994;8.820;2023-06-14T06:37:31;25.13;;;11.27;;
7383;SDS011;3733;47.994;8.820;2023-06-14T06:39:58;22.70;;;10.93;;
7383;SDS011;3733;47.994;8.820;2023-06-14T06:42:23;24.87;;;11.70;;
7383;SDS011;3733;47.994;8.820;2023-06-14T06:44:49;20.33;;;10.83;;
7383;SDS011;3733;47.994;8.820;2023-06-14T06:47:15;20.10;;;11.00;;
7383;SDS011;3733;47.994;8.820;2023-06-14T06:49:40;27.63;;;11.93;;
7383;SDS011;3733;47.994;8.820;2023-06-14T06:52:06;29.33;;;11.83;;
7383;SDS011;3733;47.994;8.820;2023-06-14T06:54:33;20.47;;;10.63;;
7383;SDS011;3733;47.994;8.820;2023-06-14T06:56:59;23.73;;;10.40;;
7383;SDS011;3733;47.994;8.820;2023-06-14T06:59:25;23.30;;;10.17;;
7383;SDS011;3733;47.994;8.820;2023-06-14T07:01:51;20.73;;;12.03;;
7383;SDS011;3733;47.994;8.820;2023-06-14T07:04:16;22.27;;;11.20;;
7383;SDS011;3733;47.994;8.820;2023-06-14T07:06:42;30.00;;;10.83;;
7383;SDS011;3733;47.994;8.820;2023-06-14T07:09:08;16.93;;;8.30;;
7383;SDS011;3733;47.994;8.820;2023-06-14T07:11:38;20.40;;;8.83;;
7383;SDS011;3733;47.994;8.820;2023-06-14T07:14:04;15.80;;;8.50;;
7383;SDS011;3733;47.994;8.820;2023-06-14T07:16:30;16.73;;;8.10;;
7383;SDS011;3733;47.994;8.820;2023-06-14T07:18:56;17.00;;;7.40;;
7383;SDS011;3733;47.994;8.820;2023-06-14T07:21:21;11.60;;;6.00;;
7383;SDS011;3733;47.994;8.820;2023-06-14T07:23:47;16.97;;;7.07;;
7383;SDS011;3733;47.994;8.820;2023-06-14T07:26:13;9.00;;;5.60;;
7383;SDS011;3733;47.994;8.820;2023-06-14T07:28:38;11.20;;;5.87;;
7383;SDS011;3733;47.994;8.820;2023-06-14T07:31:04;14.80;;;5.73;;
7383;SDS011;3733;47.994;8.820;2023-06-14T07:33:30;7.70;;;4.77;;
7383;SDS011;3733;47.994;8.820;2023-06-14T07:35:55;9.17;;;5.40;;
7383;SDS011;3733;47.994;8.820;2023-06-14T07:38:21;9.13;;;5.23;;
7383;SDS011;3733;47.994;8.820;2023-06-14T07:40:47;6.80;;;4.03;;
7383;SDS011;3733;47.994;8.820;2023-06-14T07:43:12;6.77;;;3.90;;
7383;SDS011;3733;47.994;8.820;2023-06-14T07:45:38;9.63;;;4.17;;
7383;SDS011;3733;47.994;8.820;2023-06-14T07:48:04;8.00;;;4.23;;
7383;SDS011;3733;47.994;8.820;2023-06-14T07:50:29;10.83;;;4.27;;
7383;SDS011;3733;47.994;8.820;2023-06-14T07:52:55;9.90;;;4.07;;
7383;SDS011;3733;47.994;8.820;2023-06-14T07:55:21;5.57;;;4.50;;
7383;SDS011;3733;47.994;8.820;2023-06-14T07:57:47;4.53;;;4.00;;
7383;SDS011;3733;47.994;8.820;2023-06-14T08:00:12;6.10;;;3.67;;
7383;SDS011;3733;47.994;8.820;2023-06-14T08:02:41;5.80;;;3.50;;
7383;SDS011;3733;47.994;8.820;2023-06-14T08:05:08;10.40;;;4.20;;
7383;SDS011;3733;47.994;8.820;2023-06-14T08:07:35;7.77;;;4.20;;
7383;SDS011;3733;47.994;8.820;2023-06-14T08:10:01;5.30;;;3.73;;
7383;SDS011;3733;47.994;8.820;2023-06-14T08:12:27;6.30;;;3.70;;
7383;SDS011;3733;47.994;8.820;2023-06-14T08:14:53;8.20;;;3.63;;
7383;SDS011;3733;47.994;8.820;2023-06-14T08:17:18;4.90;;;4.03;;
7383;SDS011;3733;47.994;8.820;2023-06-14T08:19:44;6.43;;;4.10;;
7383;SDS011;3733;47.994;8.820;2023-06-14T08:22:10;6.40;;;4.30;;
7383;SDS011;3733;47.994;8.820;2023-06-14T08:24:37;8.77;;;4.03;;
7383;SDS011;3733;47.994;8.820;2023-06-14T08:27:04;5.57;;;3.50;;
7383;SDS011;3733;47.994;8.820;2023-06-14T08:29:30;4.80;;;3.87;;
7383;SDS011;3733;47.994;8.820;2023-06-14T08:31:56;5.10;;;3.97;;
7383;SDS011;3733;47.994;8.820;2023-06-14T08:34:22;7.23;;;4.07;;
7383;SDS011;3733;47.994;8.820;2023-06-14T08:36:50;8.17;;;4.70;;
7383;SDS011;3733;47.994;8.820;2023-06-14T08:39:16;6.87;;;4.40;;
7383;SDS011;3733;47.994;8.820;2023-06-14T08:41:42;9.93;;;4.23;;
7383;SDS011;3733;47.994;8.820;2023-06-14T08:44:11;5.07;;;3.90;;
7383;SDS011;3733;47.994;8.820;2023-06-14T08:46:37;7.40;;;4.07;;
7383;SDS011;3733;47.994;8.820;2023-06-14T08:49:03;4.53;;;4.10;;
7383;SDS011;3733;47.994;8.820;2023-06-14T08:51:31;14.97;;;4.50;;
7383;SDS011;3733;47.994;8.820;2023-06-14T08:54:01;4.73;;;4.23;;
7383;SDS011;3733;47.994;8.820;2023-06-14T08:56:29;5.50;;;4.47;;
7383;SDS011;3733;47.994;8.820;2023-06-14T08:58:56;4.47;;;3.80;;
7383;SDS011;3733;47.994;8.820;2023-06-14T09:01:22;10.90;;;4.83;;
7383;SDS011;3733;47.994;8.820;2023-06-14T09:03:49;7.93;;;5.20;;
7383;SDS011;3733;47.994;8.820;2023-06-14T09:06:15;8.70;;;5.80;;
7383;SDS011;3733;47.994;8.820;2023-06-14T09:08:43;6.33;;;4.40;;
7383;SDS011;3733;47.994;8.820;2023-06-14T09:11:11;6.60;;;4.80;;
7383;SDS011;3733;47.994;8.820;2023-06-14T09:13:38;11.20;;;3.97;;
7383;SDS011;3733;47.994;8.820;2023-06-14T09:16:04;6.80;;;4.63;;
7383;SDS011;3733;47.994;8.820;2023-06-14T09:18:37;8.63;;;4.20;;
7383;SDS011;3733;47.994;8.820;2023-06-14T09:21:07;6.57;;;4.00;;
7383;SDS011;3733;47.994;8.820;2023-06-14T09:23:37;7.30;;;4.70;;
7383;SDS011;3733;47.994;8.820;2023-06-14T09:26:07;8.50;;;4.00;;
7383;SDS011;3733;47.994;8.820;2023-06-14T09:28:46;6.07;;;4.23;;
7383;SDS011;3733;47.994;8.820;2023-06-14T09:31:16;4.60;;;4.20;;
7383;SDS011;3733;47.994;8.820;2023-06-14T09:33:47;5.87;;;4.60;;
7383;SDS011;3733;47.994;8.820;2023-06-14T09:36:17;6.60;;;4.20;;
7383;SDS011;3733;47.994;8.820;2023-06-14T09:38:57;5.83;;;4.40;;
7383;SDS011;3733;47.994;8.820;2023-06-14T09:41:35;8.40;;;4.50;;
7383;SDS011;3733;47.994;8.820;2023-06-14T09:44:06;5.57;;;4.50;;
7383;SDS011;3733;47.994;8.820;2023-06-14T09:46:33;4.17;;;3.67;;
7383;SDS011;3733;47.994;8.820;2023-06-14T09:48:59;5.53;;;4.93;;
7383;SDS011;3733;47.994;8.820;2023-06-14T09:51:26;7.10;;;4.90;;
7383;SDS011;3733;47.994;8.820;2023-06-14T09:53:53;7.00;;;3.90;;
7383;SDS011;3733;47.994;8.820;2023-06-14T09:56:27;6.40;;;3.90;;
7383;SDS011;3733;47.994;8.820;2023-06-14T09:58:55;7.33;;;4.30;;
7383;SDS011;3733;47.994;8.820;2023-06-14T10:01:26;7.60;;;3.97;;
7383;SDS011;3733;47.994;8.820;2023-06-14T10:03:57;6.97;;;4.70;;
7383;SDS011;3733;47.994;8.820;2023-06-14T10:06:30;8.80;;;4.37;;
7383;SDS011;3733;47.994;8.820;2023-06-14T10:08:57;6.97;;;4.17;;
7383;SDS011;3733;47.994;8.820;2023-06-14T10:11:26;6.60;;;4.40;;
7383;SDS011;3733;47.994;8.820;2023-06-14T10:13:55;6.30;;;4.53;;
7383;SDS011;3733;47.994;8.820;2023-06-14T10:17:24;10.70;;;3.90;;
7383;SDS011;3733;47.994;8.820;2023-06-14T10:19:26;5.03;;;3.60;;
7383;SDS011;3733;47.994;8.820;2023-06-14T10:22:05;6.00;;;4.50;;
7383;SDS011;3733;47.994;8.820;2023-06-14T10:24:42;5.77;;;4.47;;
7383;SDS011;3733;47.994;8.820;2023-06-14T10:27:09;5.90;;;4.50;;
7383;SDS011;3733;47.994;8.820;2023-06-14T10:29:35;6.77;;;4.83;;
7383;SDS011;3733;47.994;8.820;2023-06-14T10:32:26;4.87;;;3.90;;
7383;SDS011;3733;47.994;8.820;2023-06-14T10:34:56;5.07;;;3.93;;
7383;SDS011;3733;47.994;8.820;2023-06-14T10:37:25;5.30;;;3.70;;
7383;SDS011;3733;47.994;8.820;2023-06-14T10:39:51;7.40;;;4.10;;
7383;SDS011;3733;47.994;8.820;2023-06-14T10:42:18;7.47;;;4.27;;
7383;SDS011;3733;47.994;8.820;2023-06-14T10:44:50;4.80;;;4.00;;
7383;SDS011;3733;47.994;8.820;2023-06-14T10:47:21;7.90;;;4.60;;
7383;SDS011;3733;47.994;8.820;2023-06-14T10:49:50;4.67;;;4.20;;
7383;SDS011;3733;47.994;8.820;2023-06-14T10:52:20;6.60;;;4.30;;
7383;SDS011;3733;47.994;8.820;2023-06-14T10:55:00;4.70;;;3.87;;
7383;SDS011;3733;47.994;8.820;2023-06-14T10:57:28;4.73;;;4.20;;
7383;SDS011;3733;47.994;8.820;2023-06-14T10:59:57;9.90;;;4.47;;
7383;SDS011;3733;47.994;8.820;2023-06-14T11:05:03;5.03;;;4.10;;
7383;SDS011;3733;47.994;8.820;2023-06-14T11:12:41;4.13;;;3.70;;
7383;SDS011;3733;47.994;8.820;2023-06-14T11:15:13;7.10;;;4.90;;
7383;SDS011;3733;47.994;8.820;2023-06-14T11:17:38;5.80;;;4.57;;
7383;SDS011;3733;47.994;8.820;2023-06-14T11:20:10;6.87;;;4.20;;
7383;SDS011;3733;47.994;8.820;2023-06-14T11:22:41;5.73;;;4.07;;
7383;SDS011;3733;47.994;8.820;2023-06-14T11:25:13;4.80;;;4.07;;
7383;SDS011;3733;47.994;8.820;2023-06-14T11:27:41;7.73;;;4.73;;
7383;SDS011;3733;47.994;8.820;2023-06-14T11:30:08;6.17;;;4.53;;
7383;SDS011;3733;47.994;8.820;2023-06-14T11:32:35;12.40;;;5.00;;
7383;SDS011;3733;47.994;8.820;2023-06-14T11:35:02;8.47;;;5.20;;
7383;SDS011;3733;47.994;8.820;2023-06-14T11:37:29;5.87;;;5.07;;
7383;SDS011;3733;47.994;8.820;2023-06-14T11:39:56;5.73;;;4.50;;
7383;SDS011;3733;47.994;8.820;2023-06-14T11:42:23;5.70;;;5.10;;
7383;SDS011;3733;47.994;8.820;2023-06-14T11:44:51;14.30;;;4.53;;
7383;SDS011;3733;47.994;8.820;2023-06-14T11:47:17;23.17;;;5.30;;
7383;SDS011;3733;47.994;8.820;2023-06-14T11:49:43;5.10;;;3.97;;
7383;SDS011;3733;47.994;8.820;2023-06-14T11:52:09;6.43;;;4.57;;
7383;SDS011;3733;47.994;8.820;2023-06-14T11:54:36;5.17;;;4.30;;
7383;SDS011;3733;47.994;8.820;2023-06-14T11:57:02;7.53;;;4.30;;
7383;SDS011;3733;47.994;8.820;2023-06-14T11:59:29;6.67;;;4.60;;
7383;SDS011;3733;47.994;8.820;2023-06-14T12:01:56;7.67;;;4.70;;
7383;SDS011;3733;47.994;8.820;2023-06-14T12:04:28;8.47;;;5.07;;
7383;SDS011;3733;47.994;8.820;2023-06-14T12:06:55;5.63;;;4.37;;
7383;SDS011;3733;47.994;8.820;2023-06-14T12:09:22;7.40;;;5.27;;
7383;SDS011;3733;47.994;8.820;2023-06-14T12:11:50;9.20;;;4.43;;
7383;SDS011;3733;47.994;8.820;2023-06-14T12:14:28;6.60;;;4.30;;
7383;SDS011;3733;47.994;8.820;2023-06-14T12:17:06;12.30;;;4.43;;
7383;SDS011;3733;47.994;8.820;2023-06-14T12:19:32;6.03;;;4.43;;
7383;SDS011;3733;47.994;8.820;2023-06-14T12:22:01;10.27;;;5.00;;
7383;SDS011;3733;47.994;8.820;2023-06-14T12:24:29;8.27;;;5.00;;
7383;SDS011;3733;47.994;8.820;2023-06-14T12:26:59;9.37;;;4.53;;
7383;SDS011;3733;47.994;8.820;2023-06-14T12:29:28;10.43;;;4.87;;
7383;SDS011;3733;47.994;8.820;2023-06-14T12:31:54;7.30;;;4.90;;
7383;SDS011;3733;47.994;8.820;2023-06-14T12:34:22;6.53;;;5.27;;
7383;SDS011;3733;47.994;8.820;2023-06-14T12:36:53;5.77;;;4.67;;
7383;SDS011;3733;47.994;8.820;2023-06-14T12:39:19;4.80;;;4.30;;
7383;SDS011;3733;47.994;8.820;2023-06-14T12:41:46;6.20;;;4.73;;
7383;SDS011;3733;47.994;8.820;2023-06-14T12:44:11;7.30;;;4.97;;
7383;SDS011;3733;47.994;8.820;2023-06-14T12:46:38;14.60;;;4.93;;
7383;SDS011;3733;47.994;8.820;2023-06-14T12:49:08;8.53;;;4.87;;
7383;SDS011;3733;47.994;8.820;2023-06-14T12:51:35;11.30;;;5.23;;
7383;SDS011;3733;47.994;8.820;2023-06-14T12:54:01;7.03;;;4.97;;
7383;SDS011;3733;47.994;8.820;2023-06-14T12:56:27;5.67;;;4.90;;
7383;SDS011;3733;47.994;8.820;2023-06-14T12:58:53;6.00;;;5.40;;
7383;SDS011;3733;47.994;8.820;2023-06-14T13:01:19;9.47;;;5.30;;
7383;SDS011;3733;47.994;8.820;2023-06-14T13:03:48;7.23;;;4.80;;
7383;SDS011;3733;47.994;8.820;2023-06-14T13:06:15;9.53;;;5.27;;
7383;SDS011;3733;47.994;8.820;2023-06-14T13:08:41;6.50;;;5.40;;
7383;SDS011;3733;47.994;8.820;2023-06-14T13:11:07;12.10;;;4.93;;
7383;SDS011;3733;47.994;8.820;2023-06-14T13:13:32;8.83;;;4.70;;
7383;SDS011;3733;47.994;8.820;2023-06-14T13:15:58;6.50;;;5.37;;
7383;SDS011;3733;47.994;8.820;2023-06-14T13:18:23;7.27;;;5.10;;
7383;SDS011;3733;47.994;8.820;2023-06-14T13:20:49;9.10;;;5.10;;
7383;SDS011;3733;47.994;8.820;2023-06-14T13:23:15;6.60;;;5.23;;
7383;SDS011;3733;47.994;8.820;2023-06-14T13:25:42;8.20;;;5.73;;
7383;SDS011;3733;47.994;8.820;2023-06-14T13:28:07;6.50;;;5.07;;
7383;SDS011;3733;47.994;8.820;2023-06-14T13:30:34;12.20;;;5.33;;
7383;SDS011;3733;47.994;8.820;2023-06-14T13:33:00;8.00;;;5.23;;
7383;SDS011;3733;47.994;8.820;2023-06-14T13:35:26;5.17;;;4.63;;
7383;SDS011;3733;47.994;8.820;2023-06-14T13:37:51;5.40;;;4.67;;
7383;SDS011;3733;47.994;8.820;2023-06-14T13:40:17;8.70;;;5.10;;
7383;SDS011;3733;47.994;8.820;2023-06-14T13:42:43;8.67;;;4.83;;
7383;SDS011;3733;47.994;8.820;2023-06-14T13:45:10;7.50;;;5.20;;
7383;SDS011;3733;47.994;8.820;2023-06-14T13:47:36;10.80;;;5.60;;
7383;SDS011;3733;47.994;8.820;2023-06-14T13:50:02;8.40;;;5.30;;
7383;SDS011;3733;47.994;8.820;2023-06-14T13:52:28;6.33;;;4.90;;
7383;SDS011;3733;47.994;8.820;2023-06-14T13:54:54;9.48;;;5.05;;
7383;SDS011;3733;47.994;8.820;2023-06-14T13:57:20;8.00;;;4.83;;
7383;SDS011;3733;47.994;8.820;2023-06-14T13:59:46;5.80;;;5.13;;
7383;SDS011;3733;47.994;8.820;2023-06-14T14:02:11;11.70;;;5.13;;
7383;SDS011;3733;47.994;8.820;2023-06-14T14:04:38;9.53;;;5.40;;
7383;SDS011;3733;47.994;8.820;2023-06-14T14:07:04;12.30;;;5.13;;
7383;SDS011;3733;47.994;8.820;2023-06-14T14:09:31;5.57;;;4.93;;
7383;SDS011;3733;47.994;8.820;2023-06-14T14:11:57;9.17;;;5.27;;
7383;SDS011;3733;47.994;8.820;2023-06-14T14:14:24;7.67;;;5.23;;
7383;SDS011;3733;47.994;8.820;2023-06-14T14:16:50;5.07;;;4.57;;
7383;SDS011;3733;47.994;8.820;2023-06-14T14:19:19;5.77;;;4.93;;
7383;SDS011;3733;47.994;8.820;2023-06-14T14:21:46;7.07;;;5.00;;
7383;SDS011;3733;47.994;8.820;2023-06-14T14:24:11;6.70;;;5.17;;
7383;SDS011;3733;47.994;8.820;2023-06-14T14:26:38;11.13;;;5.17;;
7383;SDS011;3733;47.994;8.820;2023-06-14T14:29:03;8.20;;;5.17;;
7383;SDS011;3733;47.994;8.820;2023-06-14T14:31:32;7.67;;;5.03;;
7383;SDS011;3733;47.994;8.820;2023-06-14T14:33:58;11.00;;;5.07;;
7383;SDS011;3733;47.994;8.820;2023-06-14T14:36:24;7.50;;;5.27;;
7383;SDS011;3733;47.994;8.820;2023-06-14T14:38:49;7.87;;;5.43;;
7383;SDS011;3733;47.994;8.820;2023-06-14T14:41:16;10.43;;;5.57;;
7383;SDS011;3733;47.994;8.820;2023-06-14T14:43:42;9.27;;;5.20;;
7383;SDS011;3733;47.994;8.820;2023-06-14T14:46:08;7.47;;;5.23;;
7383;SDS011;3733;47.994;8.820;2023-06-14T14:48:33;6.50;;;5.33;;
7383;SDS011;3733;47.994;8.820;2023-06-14T14:50:59;10.40;;;5.60;;
7383;SDS011;3733;47.994;8.820;2023-06-14T14:53:25;6.03;;;4.87;;
7383;SDS011;3733;47.994;8.820;2023-06-14T14:55:50;5.83;;;4.87;;
7383;SDS011;3733;47.994;8.820;2023-06-14T14:58:16;5.47;;;4.33;;
7383;SDS011;3733;47.994;8.820;2023-06-14T15:00:45;7.23;;;5.67;;
7383;SDS011;3733;47.994;8.820;2023-06-14T15:03:10;5.63;;;5.03;;
7383;SDS011;3733;47.994;8.820;2023-06-14T15:05:36;8.90;;;5.23;;
7383;SDS011;3733;47.994;8.820;2023-06-14T15:08:02;8.27;;;5.40;;
7383;SDS011;3733;47.994;8.820;2023-06-14T15:10:28;6.63;;;4.93;;
7383;SDS011;3733;47.994;8.820;2023-06-14T15:12:54;5.13;;;4.63;;
7383;SDS011;3733;47.994;8.820;2023-06-14T15:15:21;6.30;;;5.03;;
7383;SDS011;3733;47.994;8.820;2023-06-14T15:17:47;7.00;;;4.70;;
7383;SDS011;3733;47.994;8.820;2023-06-14T15:20:12;5.10;;;4.47;;